Time,TemperatureF,DewpointF,PressureIn,WindDirection,WindDirectionDegrees,WindSpeedMPH,WindSpeedGustMPH,Humidity,HourlyPrecipIn,Conditions,Clouds,dailyrainin,SoftwareType,DateUTC
2013-07-26 00:01:00,62.0,56.0,30.09,North,0,0.0,0.0,80,0.00,,,-99.99,,2013-07-26 07:01:00,
2013-07-26 00:32:00,62.0,56.0,30.09,North,0,0.0,0.0,80,0.00,,,-99.99,,2013-07-26 07:32:00,
2013-07-26 00:42:00,62.0,56.0,30.09,North,0,0.0,0.0,81,0.00,,,-99.99,,2013-07-26 07:42:00,
2013-07-26 00:52:00,61.0,55.0,30.09,North,0,0.0,0.0,81,0.00,,,-99.99,,2013-07-26 07:52:00,
2013-07-26 01:01:00,61.0,55.0,30.10,North,0,0.0,0.0,82,0.00,,,-99.99,,2013-07-26 08:01:00,
2013-07-26 01:11:00,61.0,56.0,30.10,North,0,0.0,0.0,83,0.00,,,-99.99,,2013-07-26 08:11:00,
2013-07-26 01:32:00,61.0,56.0,30.10,North,0,0.0,0.0,83,0.00,,,-99.99,,2013-07-26 08:32:00,
2013-07-26 01:43:00,61.0,56.0,30.10,North,0,0.0,0.0,84,0.00,,,-99.99,,2013-07-26 08:43:00,
2013-07-26 01:52:00,60.0,55.0,30.10,North,0,0.0,0.0,84,0.00,,,-99.99,,2013-07-26 08:52:00,
2013-07-26 02:01:00,60.0,55.0,30.10,North,0,0.0,0.0,84,0.00,,,-99.99,,2013-07-26 09:01:00,
2013-07-26 02:12:00,59.0,54.0,30.11,North,0,0.0,0.0,85,0.00,,,-99.99,,2013-07-26 09:12:00,
2013-07-26 02:32:00,59.0,55.0,30.10,North,0,0.0,0.0,87,0.00,,,-99.99,,2013-07-26 09:32:00,
2013-07-26 02:43:00,58.0,54.0,30.10,North,0,0.0,0.0,88,0.00,,,-99.99,,2013-07-26 09:43:00,
2013-07-26 02:52:00,58.0,54.0,30.10,North,0,0.0,0.0,88,0.00,,,-99.99,,2013-07-26 09:52:00,
2013-07-26 03:01:00,58.0,55.0,30.10,North,0,0.0,0.0,89,0.00,,,-99.99,,2013-07-26 10:01:00,
2013-07-26 03:11:00,58.0,55.0,30.10,North,0,0.0,0.0,89,0.00,,,-99.99,,2013-07-26 10:11:00,
2013-07-26 03:21:00,58.0,55.0,30.10,North,0,0.0,0.0,90,0.00,,,-99.99,,2013-07-26 10:21:00,
2013-07-26 03:42:00,57.0,54.0,30.11,North,0,0.0,0.0,91,0.00,,,-99.99,,2013-07-26 10:42:00,
2013-07-26 03:52:00,58.0,55.0,30.11,North,0,0.0,0.0,91,0.00,,,-99.99,,2013-07-26 10:52:00,
2013-07-26 04:01:00,58.0,55.0,30.11,North,0,0.0,0.0,91,0.00,,,-99.99,,2013-07-26 11:01:00,
2013-07-26 04:11:00,58.0,55.0,30.11,North,0,0.0,0.0,91,0.00,,,-99.99,,2013-07-26 11:11:00,
2013-07-26 04:32:00,57.0,54.0,30.12,North,0,0.0,0.0,91,0.00,,,-99.99,,2013-07-26 11:32:00,
2013-07-26 04:43:00,57.0,55.0,30.12,North,0,0.0,0.0,92,0.00,,,-99.99,,2013-07-26 11:43:00,
2013-07-26 04:52:00,57.0,55.0,30.12,North,0,0.0,0.0,92,0.00,,,-99.99,,2013-07-26 11:52:00,
2013-07-26 05:01:00,56.0,54.0,30.12,North,0,0.0,0.0,93,0.00,,,-99.99,,2013-07-26 12:01:00,
2013-07-26 05:11:00,56.0,54.0,30.12,North,0,0.0,0.0,93,0.00,,,-99.99,,2013-07-26 12:11:00,
2013-07-26 05:33:00,55.0,53.0,30.13,North,0,0.0,0.0,93,0.00,,,-99.99,,2013-07-26 12:33:00,
2013-07-26 05:43:00,55.0,53.0,30.13,North,0,0.0,0.0,93,0.00,,,-99.99,,2013-07-26 12:43:00,
2013-07-26 05:53:00,55.0,53.0,30.13,North,0,0.0,0.0,94,0.00,,,-99.99,,2013-07-26 12:53:00,
2013-07-26 06:11:00,54.0,53.0,30.13,North,0,0.0,0.0,95,0.00,,,-99.99,,2013-07-26 13:11:00,
2013-07-26 06:32:00,54.0,53.0,30.14,North,0,0.0,0.0,95,0.00,,,-99.99,,2013-07-26 13:32:00,
2013-07-26 06:43:00,54.0,53.0,30.14,North,0,0.0,0.0,96,0.00,,,-99.99,,2013-07-26 13:43:00,
2013-07-26 07:02:00,53.0,52.0,30.14,North,0,0.0,0.0,96,0.00,,,-99.99,,2013-07-26 14:02:00,
2013-07-26 07:32:00,53.0,52.0,30.14,North,0,0.0,0.0,97,0.00,,,-99.99,,2013-07-26 14:32:00,
2013-07-26 07:43:00,54.0,53.0,30.14,North,0,0.0,0.0,97,0.00,,,-99.99,,2013-07-26 14:43:00,
2013-07-26 07:53:00,54.0,53.0,30.14,North,0,0.0,0.0,97,0.00,,,-99.99,,2013-07-26 14:53:00,
2013-07-26 08:01:00,54.0,53.0,30.14,North,0,0.0,0.0,97,0.00,,,-99.99,,2013-07-26 15:01:00,
2013-07-26 08:32:00,56.0,54.0,30.15,North,0,0.0,0.0,94,0.00,,,-99.99,,2013-07-26 15:32:00,
2013-07-26 08:43:00,56.0,54.0,30.15,North,0,0.0,0.0,94,0.00,,,-99.99,,2013-07-26 15:43:00,
2013-07-26 08:53:00,57.0,55.0,30.15,North,0,0.0,0.0,93,0.00,,,-99.99,,2013-07-26 15:53:00,
2013-07-26 09:14:00,58.0,55.0,30.16,North,0,0.0,0.0,91,0.00,,,-99.99,,2013-07-26 16:14:00,
2013-07-26 09:32:00,59.0,56.0,30.16,North,0,0.0,0.0,91,0.00,,,-99.99,,2013-07-26 16:32:00,
2013-07-26 09:43:00,62.0,57.0,30.16,North,0,0.0,0.0,85,0.00,,,-99.99,,2013-07-26 16:43:00,
2013-07-26 16:52:00,76.0,58.0,30.17,West,275,1.0,8.0,54,0.00,,,-99.99,,2013-07-26 23:52:00,
2013-07-26 17:32:00,75.0,58.0,30.16,WNW,288,0.0,7.0,56,0.00,,,-99.99,,2013-07-27 00:32:00,
2013-07-26 17:42:00,75.0,58.0,30.16,ENE,78,0.0,7.0,55,0.00,,,-99.99,,2013-07-27 00:42:00,
2013-07-26 18:01:00,74.0,58.0,30.16,WSW,247,0.0,6.0,57,0.00,,,-99.99,,2013-07-27 01:01:00,
2013-07-26 18:32:00,73.0,57.0,30.16,ENE,64,0.0,6.0,58,0.00,,,-99.99,,2013-07-27 01:32:00,
2013-07-26 18:43:00,73.0,58.0,30.16,NNE,19,0.0,3.0,59,0.00,,,-99.99,,2013-07-27 01:43:00,
2013-07-26 18:53:00,73.0,58.0,30.16,SSW,207,0.0,5.0,60,0.00,,,-99.99,,2013-07-27 01:53:00,
2013-07-26 19:32:00,70.0,57.0,30.16,North,0,0.0,0.0,63,0.00,,,-99.99,,2013-07-27 02:32:00,
2013-07-26 19:52:00,69.0,56.0,30.16,North,0,0.0,0.0,64,0.00,,,-99.99,,2013-07-27 02:52:00,
2013-07-26 20:02:00,68.0,56.0,30.16,North,0,0.0,0.0,65,0.00,,,-99.99,,2013-07-27 03:02:00,
2013-07-26 20:11:00,68.0,56.0,30.16,North,0,0.0,0.0,65,0.00,,,-99.99,,2013-07-27 03:11:00,
2013-07-26 20:22:00,67.0,55.0,30.16,North,0,0.0,0.0,65,0.00,,,-99.99,,2013-07-27 03:22:00,
2013-07-26 20:43:00,65.0,53.0,30.16,North,0,0.0,0.0,66,0.00,,,-99.99,,2013-07-27 03:43:00,
2013-07-26 20:52:00,65.0,54.0,30.17,SSW,193,0.0,3.0,67,0.00,,,-99.99,,2013-07-27 03:52:00,
2013-07-26 21:02:00,64.0,53.0,30.17,NNE,15,0.0,2.0,68,0.00,,,-99.99,,2013-07-27 04:02:00,
2013-07-26 21:11:00,64.0,54.0,30.17,North,0,0.0,2.0,69,0.00,,,-99.99,,2013-07-27 04:11:00,
2013-07-26 21:32:00,62.0,53.0,30.18,North,0,0.0,0.0,73,0.00,,,-99.99,,2013-07-27 04:32:00,
2013-07-26 21:43:00,61.0,53.0,30.19,SSW,200,0.0,2.0,74,0.00,,,-99.99,,2013-07-27 04:43:00,
2013-07-26 21:53:00,61.0,53.0,30.19,SSW,200,0.0,2.0,74,0.00,,,-99.99,,2013-07-27 04:53:00,
2013-07-26 22:32:00,59.0,53.0,30.19,North,0,0.0,1.0,80,0.00,,,-99.99,,2013-07-27 05:32:00,
2013-07-26 22:43:00,59.0,53.0,30.19,North,0,0.0,3.0,81,0.00,,,-99.99,,2013-07-27 05:43:00,
2013-07-26 22:52:00,58.0,52.0,30.19,North,0,0.0,3.0,81,0.00,,,-99.99,,2013-07-27 05:52:00,
2013-07-26 23:43:00,57.0,53.0,30.20,North,0,0.0,0.0,87,0.00,,,-99.99,,2013-07-27 06:43:00,